Time;durP1;ratioP1;P1;durP2;ratioP2;P2;SDS_P1;SDS_P2;PMS_P1;PMS_P2;Temp;Humidity;BMP_temperature;BMP_pressure;BME280_temperature;BME280_humidity;BME280_pressure;Samples;Min_cycle;Max_cycle;Signal;HPM_P1;HPM_P2
2022/12/14 00:01:23;;;;;;;8.57;7.20;;;1.90;65.80;1.20;95061.00;;;;5072964;28;20593;-86
2022/12/14 00:03:52;;;;;;;11.57;7.30;;;1.80;65.70;1.20;95055.00;;;;5071806;28;20955;-86
2022/12/14 00:06:23;;;;;;;9.33;7.43;;;1.80;65.80;1.20;95063.00;;;;5070354;28;20493;-86
2022/12/14 00:08:52;;;;;;;8.50;6.83;;;1.80;65.80;1.20;95064.00;;;;5070985;28;20580;-86
2022/12/14 00:11:21;;;;;;;9.47;7.83;;;1.80;65.80;1.20;95066.00;;;;5074647;28;20461;-86
2022/12/14 00:13:53;;;;;;;8.57;6.47;;;1.80;65.80;1.20;95056.00;;;;5075406;28;20457;-86
2022/12/14 00:16:21;;;;;;;8.80;6.73;;;1.80;65.80;1.20;95051.00;;;;5074373;28;20548;-86
2022/12/14 00:18:52;;;;;;;7.53;6.83;;;1.80;65.80;1.20;95054.00;;;;5074538;28;20577;-86
2022/12/14 00:21:21;;;;;;;10.03;7.77;;;1.80;65.90;1.20;95051.00;;;;5075691;28;20566;-86
2022/12/14 00:23:50;;;;;;;8.30;7.00;;;1.80;65.90;1.20;95048.00;;;;5076267;28;20557;-87
2022/12/14 00:26:21;;;;;;;8.10;6.97;;;1.80;66.00;1.20;95044.00;;;;5073825;28;20450;-86
2022/12/14 00:28:51;;;;;;;8.97;6.83;;;1.80;66.00;1.20;95046.00;;;;5073971;28;20927;-86
2022/12/14 00:31:18;;;;;;;9.10;7.70;;;1.90;66.10;1.30;95046.00;;;;5074353;28;20469;-85
2022/12/14 00:33:46;;;;;;;9.30;6.80;;;1.90;66.20;1.30;95053.00;;;;5074168;28;20446;-86
2022/12/14 00:36:14;;;;;;;8.67;6.73;;;1.90;66.10;1.30;95050.00;;;;5071017;28;20449;-86
2022/12/14 00:38:43;;;;;;;8.80;7.50;;;1.90;66.10;1.30;95045.00;;;;5067224;28;20478;-86
2022/12/14 00:41:12;;;;;;;8.37;6.80;;;1.90;66.10;1.30;95065.00;;;;5072968;28;20478;-86
2022/12/14 00:43:40;;;;;;;10.50;7.40;;;1.90;66.00;1.30;95066.00;;;;5073192;28;20545;-86
2022/12/14 00:46:07;;;;;;;8.17;7.20;;;1.90;65.90;1.30;95071.00;;;;5071098;28;20899;-86
2022/12/14 00:48:35;;;;;;;9.30;7.60;;;1.90;65.70;1.30;95059.00;;;;5072222;28;20527;-86
2022/12/14 00:51:02;;;;;;;11.57;8.23;;;1.90;65.80;1.40;95058.00;;;;5074823;28;20449;-86
2022/12/14 00:53:30;;;;;;;10.20;7.70;;;2.00;66.10;1.40;95055.00;;;;5074241;28;20512;-86
2022/12/14 00:56:06;;;;;;;8.03;7.03;;;2.00;66.10;1.40;95055.00;;;;5073803;28;20514;-86
2022/12/14 00:58:34;;;;;;;9.47;7.50;;;2.00;66.30;1.40;95049.00;;;;5076062;28;20576;-86
2022/12/14 01:01:05;;;;;;;9.97;7.77;;;2.00;66.20;1.40;95049.00;;;;5071677;28;21207;-86
2022/12/14 01:03:33;;;;;;;8.23;7.10;;;2.00;66.20;1.50;95058.00;;;;5073070;28;20478;-85
2022/12/14 01:06:01;;;;;;;11.20;7.80;;;2.00;66.20;1.50;95067.00;;;;5074146;28;20486;-86
2022/12/14 01:08:34;;;;;;;9.27;7.13;;;2.10;66.00;1.50;95055.00;;;;5073964;28;20576;-85
2022/12/14 01:11:06;;;;;;;7.83;6.80;;;2.10;66.20;1.50;95052.00;;;;5073336;28;20522;-86
2022/12/14 01:13:35;;;;;;;8.10;7.10;;;2.10;66.10;1.60;95048.00;;;;5070975;28;20477;-86
2022/12/14 01:16:08;;;;;;;10.27;7.47;;;2.10;66.10;1.60;95049.00;;;;5074512;28;20481;-85
2022/12/14 01:18:35;;;;;;;8.87;7.10;;;2.10;66.10;1.60;95045.00;;;;5073898;28;20572;-85
2022/12/14 01:21:12;;;;;;;8.77;6.93;;;2.10;66.00;1.60;95052.00;;;;5076575;28;20524;-86
2022/12/14 01:23:40;;;;;;;8.83;7.40;;;2.20;66.00;1.60;95052.00;;;;5073883;28;20895;-86
2022/12/14 01:26:08;;;;;;;8.40;7.07;;;2.20;66.00;1.60;95070.00;;;;5073456;28;20522;-86
2022/12/14 01:28:36;;;;;;;11.97;7.70;;;2.20;65.90;1.60;95063.00;;;;5076154;28;20466;-85
2022/12/14 01:31:08;;;;;;;9.37;7.53;;;2.20;65.90;1.70;95075.00;;;;5076808;28;20482;-85
2022/12/14 01:33:35;;;;;;;8.57;7.30;;;2.20;66.00;1.70;95081.00;;;;5076775;28;20446;-85
2022/12/14 01:36:07;;;;;;;9.57;7.70;;;2.20;66.00;1.70;95060.00;;;;5076027;28;20580;-85
2022/12/14 01:38:34;;;;;;;8.87;7.33;;;2.20;65.90;1.70;95060.00;;;;5077473;28;20485;-85
2022/12/14 01:41:03;;;;;;;9.07;7.77;;;2.20;65.70;1.70;95051.00;;;;5078658;28;20971;-85
2022/12/14 01:43:52;;;;;;;8.87;7.20;;;2.30;65.80;1.70;95049.00;;;;5076632;28;20481;-85
2022/12/14 01:46:28;;;;;;;8.40;7.50;;;2.30;65.80;1.70;95045.00;;;;5075915;28;20572;-86
2022/12/14 01:49:06;;;;;;;10.37;7.13;;;2.20;65.80;1.70;95053.00;;;;5075709;28;20476;-86
2022/12/14 01:51:36;;;;;;;8.67;6.87;;;2.30;65.80;1.70;95058.00;;;;5077465;28;20544;-86
2022/12/14 01:54:09;;;;;;;7.77;6.50;;;2.30;65.80;1.70;95064.00;;;;5078179;28;20545;-86
2022/12/14 01:56:41;;;;;;;8.67;7.10;;;2.30;65.80;1.70;95066.00;;;;5076373;28;22031;-85
2022/12/14 01:59:16;;;;;;;8.67;7.20;;;2.30;65.80;1.70;95058.00;;;;5078651;28;20487;-85
2022/12/14 02:01:44;;;;;;;9.20;7.13;;;2.30;65.60;1.70;95052.00;;;;5077433;28;20480;-85
2022/12/14 02:04:13;;;;;;;8.93;7.27;;;2.30;65.50;1.70;95027.00;;;;5075651;28;20476;-85
2022/12/14 02:06:43;;;;;;;8.27;7.03;;;2.30;65.60;1.80;95034.00;;;;5075907;28;20515;-86
2022/12/14 02:09:18;;;;;;;8.00;6.90;;;2.30;65.60;1.80;95054.00;;;;5074965;28;21242;-86
2022/12/14 02:11:54;;;;;;;9.63;7.23;;;2.30;65.40;1.80;95060.00;;;;5074218;28;20484;-86
2022/12/14 02:14:24;;;;;;;8.73;7.37;;;2.40;65.50;1.80;95042.00;;;;5072604;28;20480;-85
2022/12/14 02:16:54;;;;;;;9.03;7.07;;;2.40;65.60;1.80;95025.00;;;;5072335;28;20470;-85
2022/12/14 02:19:21;;;;;;;8.07;6.83;;;2.40;65.70;1.80;95020.00;;;;5074700;28;20541;-85
2022/12/14 02:22:20;;;;;;;8.03;6.97;;;2.40;65.70;1.80;95031.00;;;;5072155;28;20595;-86
2022/12/14 02:25:16;;;;;;;7.70;6.90;;;2.40;65.70;1.80;95035.00;;;;5073852;28;20493;-86
2022/12/14 02:28:04;;;;;;;9.00;7.00;;;2.40;65.80;1.80;95024.00;;;;5071698;28;20535;-86
2022/12/14 02:30:39;;;;;;;7.90;7.10;;;2.40;65.70;1.80;95013.00;;;;5071659;28;20465;-86
2022/12/14 02:33:35;;;;;;;10.37;6.87;;;2.40;65.80;1.80;95012.00;;;;5072899;28;20476;-86
2022/12/14 02:36:12;;;;;;;9.67;7.43;;;2.40;65.70;1.80;95008.00;;;;5076377;28;20485;-86
2022/12/14 02:38:54;;;;;;;7.87;6.97;;;2.40;65.60;1.80;94997.00;;;;5077150;28;20479;-86
2022/12/14 02:41:37;;;;;;;10.00;7.53;;;2.40;65.50;1.80;94980.00;;;;5075907;28;20640;-86
2022/12/14 02:44:17;;;;;;;11.10;7.30;;;2.40;65.70;1.80;94987.00;;;;5075243;28;20527;-86
2022/12/14 02:47:01;;;;;;;8.63;7.37;;;2.40;65.50;1.80;94993.00;;;;5074741;28;21193;-86
2022/12/14 02:49:51;;;;;;;8.00;6.93;;;2.40;65.20;1.80;94998.00;;;;5076785;28;20786;-86
2022/12/14 02:52:34;;;;;;;7.47;6.37;;;2.40;65.30;1.80;94999.00;;;;5075490;28;20494;-86
2022/12/14 02:55:08;;;;;;;9.17;6.73;;;2.40;65.50;1.80;94997.00;;;;5074817;28;20506;-86
2022/12/14 02:57:43;;;;;;;8.17;6.63;;;2.40;65.60;1.80;94990.00;;;;5074381;28;20565;-86
2022/12/14 03:00:12;;;;;;;7.87;6.77;;;2.40;65.70;1.80;94981.00;;;;5076212;28;20534;-86
2022/12/14 03:02:45;;;;;;;9.17;6.97;;;2.40;65.70;1.90;94980.00;;;;5075318;28;20477;-86
2022/12/14 03:05:12;;;;;;;8.40;6.83;;;2.40;65.70;1.90;94972.00;;;;5076599;28;21109;-86
2022/12/14 03:07:46;;;;;;;8.77;7.17;;;2.40;65.80;1.90;94981.00;;;;5073906;28;21046;-85
2022/12/14 03:10:29;;;;;;;7.53;6.73;;;2.40;65.70;1.90;94974.00;;;;5075012;28;20477;-86
2022/12/14 03:13:05;;;;;;;8.07;7.00;;;2.50;65.70;1.90;94975.00;;;;5074295;28;20536;-85
2022/12/14 03:15:38;;;;;;;9.37;7.87;;;2.40;65.50;1.90;94957.00;;;;5073878;28;20450;-85
2022/12/14 03:18:09;;;;;;;8.87;7.27;;;2.40;65.30;1.80;94959.00;;;;5075080;28;20564;-85
2022/12/14 03:20:39;;;;;;;7.70;6.67;;;2.40;65.30;1.80;94959.00;;;;5072963;28;20484;-85
2022/12/14 03:23:11;;;;;;;8.10;7.00;;;2.40;65.40;1.80;94972.00;;;;5074344;28;20478;-86
2022/12/14 03:25:47;;;;;;;7.67;6.37;;;2.40;65.50;1.90;94973.00;;;;5074684;28;20864;-85
2022/12/14 03:28:20;;;;;;;8.97;7.10;;;2.50;65.60;1.90;94976.00;;;;5073362;28;20553;-85
2022/12/14 03:30:56;;;;;;;7.97;6.93;;;2.50;65.60;1.90;94978.00;;;;5073950;28;20458;-85
2022/12/14 03:33:29;;;;;;;7.73;6.33;;;2.50;65.70;1.90;94976.00;;;;5071918;28;20583;-85
2022/12/14 03:36:03;;;;;;;8.13;7.13;;;2.50;65.80;1.90;94981.00;;;;5068380;28;20540;-85
2022/12/14 03:38:37;;;;;;;8.40;6.77;;;2.50;65.80;1.90;94973.00;;;;5070236;28;20572;-86
2022/12/14 03:41:19;;;;;;;7.27;6.40;;;2.50;65.60;1.90;94957.00;;;;5070149;28;20794;-86
2022/12/14 03:44:12;;;;;;;9.07;6.87;;;2.50;65.50;1.90;94948.00;;;;5068624;28;20474;-85
2022/12/14 03:46:53;;;;;;;7.80;7.00;;;2.50;65.60;2.00;94950.00;;;;5069617;28;20567;-86
2022/12/14 03:49:34;;;;;;;10.37;6.67;;;2.50;65.50;1.90;94939.00;;;;5070777;28;20445;-86
2022/12/14 03:52:12;;;;;;;8.63;7.17;;;2.50;65.30;1.90;94936.00;;;;5069658;28;20488;-86
2022/12/14 03:54:53;;;;;;;8.13;6.73;;;2.50;65.30;1.90;94925.00;;;;5070308;28;20464;-86
2022/12/14 03:57:42;;;;;;;10.57;7.20;;;2.50;65.20;1.90;94947.00;;;;5071807;28;20469;-86
2022/12/14 04:00:14;;;;;;;8.90;6.90;;;2.50;65.30;1.90;94948.00;;;;5071698;28;20466;-86
2022/12/14 04:02:49;;;;;;;8.70;7.30;;;2.50;65.30;1.90;94963.00;;;;5071506;28;20465;-86
2022/12/14 04:05:28;;;;;;;8.37;7.23;;;2.60;65.20;1.90;94955.00;;;;5070282;28;20487;-86
2022/12/14 04:08:04;;;;;;;8.73;6.53;;;2.50;65.30;1.90;94950.00;;;;5072793;28;20537;-85
2022/12/14 04:19:18;;;;;;;8.40;6.93;;;2.50;65.60;2.00;94930.00;;;;5074699;28;20485;-85
2022/12/14 04:21:55;;;;;;;9.57;7.50;;;2.50;65.50;2.00;94940.00;;;;5074044;28;20533;-85
2022/12/14 04:27:22;;;;;;;8.83;7.50;;;2.50;65.80;2.00;94931.00;;;;5068628;28;20493;-85
2022/12/14 04:29:55;;;;;;;8.37;7.27;;;2.60;65.80;2.00;94924.00;;;;5072394;28;20450;-86
2022/12/14 04:32:30;;;;;;;8.37;6.93;;;2.60;66.00;2.10;94920.00;;;;5073132;28;20821;-85
2022/12/14 04:35:04;;;;;;;7.90;7.10;;;2.60;66.00;2.00;94925.00;;;;5072990;28;20967;-85
2022/12/14 04:37:37;;;;;;;9.03;7.50;;;2.60;66.00;2.10;94929.00;;;;5070827;28;21112;-85
2022/12/14 04:40:11;;;;;;;9.63;7.27;;;2.60;66.60;2.10;94925.00;;;;5076914;28;20522;-85
2022/12/14 04:42:45;;;;;;;8.53;7.03;;;2.60;65.80;2.10;94913.00;;;;5077040;28;20551;-85
2022/12/14 04:45:18;;;;;;;10.37;7.53;;;2.60;65.80;2.10;94902.00;;;;5075023;28;20504;-85
2022/12/14 04:47:57;;;;;;;9.03;6.80;;;2.60;65.90;2.10;94896.00;;;;5073408;28;20530;-85
2022/12/14 04:50:30;;;;;;;9.33;6.90;;;2.70;65.90;2.10;94897.00;;;;5074245;28;20442;-86
2022/12/14 04:53:10;;;;;;;9.00;6.90;;;2.70;65.80;2.10;94889.00;;;;5073003;28;20562;-85
2022/12/14 04:55:46;;;;;;;11.00;7.53;;;2.70;65.70;2.10;94887.00;;;;5072205;28;20507;-85
2022/12/14 04:58:21;;;;;;;9.80;7.50;;;2.70;65.60;2.10;94889.00;;;;5073896;28;20489;-86
2022/12/14 05:01:12;;;;;;;8.77;7.13;;;2.70;65.70;2.10;94908.00;;;;5071529;28;20908;-85
2022/12/14 05:03:51;;;;;;;9.30;6.43;;;2.70;65.50;2.10;94898.00;;;;5072759;28;20566;-85
2022/12/14 05:06:32;;;;;;;8.90;7.53;;;2.70;65.50;2.20;94885.00;;;;5074717;28;20445;-84
2022/12/14 05:09:17;;;;;;;9.07;7.50;;;2.70;65.70;2.20;94889.00;;;;5074697;28;20889;-85
2022/12/14 05:11:53;;;;;;;9.87;7.07;;;2.70;65.60;2.20;94897.00;;;;5073405;28;20450;-84
2022/12/14 05:14:32;;;;;;;11.33;7.13;;;2.70;65.60;2.20;94885.00;;;;5071396;28;20465;-85
2022/12/14 05:17:02;;;;;;;8.73;7.10;;;2.70;65.70;2.20;94887.00;;;;5072310;28;20480;-85
2022/12/14 05:19:29;;;;;;;9.33;7.20;;;2.70;65.50;2.20;94884.00;;;;5071716;28;20496;-84
2022/12/14 05:21:56;;;;;;;10.97;7.07;;;2.80;65.40;2.20;94888.00;;;;5073517;28;20449;-84
2022/12/14 05:24:25;;;;;;;9.40;6.90;;;2.70;65.50;2.10;94887.00;;;;5075288;28;20496;-84
2022/12/14 05:26:52;;;;;;;8.50;6.57;;;2.70;65.60;2.10;94886.00;;;;5074898;28;20510;-85
2022/12/14 05:29:19;;;;;;;9.23;7.00;;;2.70;65.70;2.10;94882.00;;;;5073677;28;20620;-84
2022/12/14 05:31:46;;;;;;;9.70;7.40;;;2.70;65.70;2.20;94890.00;;;;5077310;28;20454;-84
2022/12/14 05:34:13;;;;;;;9.40;7.33;;;2.70;65.60;2.20;94887.00;;;;5076299;28;20450;-85
2022/12/14 05:36:41;;;;;;;10.97;7.43;;;2.70;65.70;2.20;94880.00;;;;5074290;28;21029;-85
2022/12/14 05:39:08;;;;;;;10.03;7.80;;;2.70;66.00;2.20;94879.00;;;;5074882;28;20952;-86
2022/12/14 05:41:36;;;;;;;8.10;6.57;;;2.70;66.10;2.20;94878.00;;;;5074502;28;20442;-85
2022/12/14 05:44:04;;;;;;;8.83;7.07;;;2.80;66.30;2.30;94872.00;;;;5073523;28;20609;-85
2022/12/14 05:46:31;;;;;;;9.57;7.57;;;2.80;66.40;2.30;94868.00;;;;5073553;28;20508;-86
2022/12/14 05:48:59;;;;;;;7.57;6.80;;;2.80;66.40;2.30;94864.00;;;;5074277;28;20531;-86
2022/12/14 05:51:26;;;;;;;11.30;7.97;;;2.80;66.40;2.30;94860.00;;;;5072010;28;20457;-83
2022/12/14 05:53:53;;;;;;;9.97;7.60;;;2.80;66.20;2.30;94869.00;;;;5073349;28;20533;-84
2022/12/14 05:56:20;;;;;;;8.70;7.37;;;2.80;66.30;2.40;94869.00;;;;5071796;28;20481;-85
2022/12/14 05:58:52;;;;;;;8.37;7.10;;;2.80;66.30;2.40;94860.00;;;;5072618;28;20549;-85
2022/12/14 06:01:19;;;;;;;7.87;7.00;;;2.90;66.20;2.40;94855.00;;;;5071975;28;20532;-86
2022/12/14 06:03:47;;;;;;;8.83;7.30;;;2.90;66.20;2.40;94841.00;;;;5074027;28;20505;-85
2022/12/14 06:06:15;;;;;;;9.10;6.87;;;2.90;65.90;2.40;94843.00;;;;5073315;28;20873;-85
2022/12/14 06:08:45;;;;;;;9.63;7.13;;;2.90;66.10;2.40;94832.00;;;;5075708;28;21397;-86
2022/12/14 06:11:15;;;;;;;9.13;7.53;;;2.90;66.20;2.40;94826.00;;;;5076026;28;20499;-85
2022/12/14 06:13:43;;;;;;;9.20;6.97;;;2.90;66.20;2.40;94820.00;;;;5075218;28;20816;-85
2022/12/14 06:16:14;;;;;;;8.73;7.30;;;3.00;66.20;2.40;94827.00;;;;5077673;28;20885;-85
2022/12/14 06:18:44;;;;;;;9.33;7.23;;;3.00;66.10;2.50;94835.00;;;;5075748;28;20568;-85
2022/12/14 06:21:11;;;;;;;9.73;7.07;;;3.00;65.90;2.40;94823.00;;;;5078045;28;20541;-85
2022/12/14 06:23:39;;;;;;;8.40;7.23;;;3.00;66.00;2.50;94815.00;;;;5075545;28;20516;-85
2022/12/14 06:26:07;;;;;;;8.87;7.07;;;3.00;65.90;2.50;94807.00;;;;5076980;28;20871;-85
2022/12/14 06:28:35;;;;;;;8.80;7.27;;;3.00;65.70;2.40;94813.00;;;;5076574;28;20508;-85
2022/12/14 06:31:04;;;;;;;9.03;7.30;;;3.00;65.70;2.40;94810.00;;;;5078155;28;20625;-85
2022/12/14 06:33:34;;;;;;;10.23;7.93;;;3.00;65.60;2.40;94806.00;;;;5076646;28;20484;-85
2022/12/14 06:36:03;;;;;;;9.80;7.50;;;3.00;65.70;2.40;94803.00;;;;5075721;28;20896;-85
2022/12/14 06:38:30;;;;;;;9.87;7.40;;;3.00;65.80;2.40;94807.00;;;;5075848;28;20539;-84
2022/12/14 06:40:57;;;;;;;10.33;7.70;;;3.00;65.70;2.50;94810.00;;;;5076413;28;20521;-83
2022/12/14 06:43:26;;;;;;;8.70;7.47;;;3.00;65.70;2.40;94808.00;;;;5077454;28;20513;-83
2022/12/14 06:45:53;;;;;;;8.27;7.10;;;3.00;65.80;2.40;94809.00;;;;5077163;28;20577;-83
2022/12/14 06:48:21;;;;;;;7.80;6.97;;;3.00;65.60;2.50;94810.00;;;;5078247;28;20461;-83
2022/12/14 06:50:49;;;;;;;8.77;7.40;;;3.00;65.80;2.50;94808.00;;;;5076087;28;20485;-84
2022/12/14 06:53:16;;;;;;;8.90;7.03;;;3.00;65.60;2.40;94810.00;;;;5074759;28;20484;-84
2022/12/14 06:55:44;;;;;;;7.50;6.20;;;3.00;65.50;2.40;94800.00;;;;5076043;28;20461;-84
2022/12/14 06:58:13;;;;;;;10.47;7.60;;;3.00;65.60;2.50;94796.00;;;;5075480;28;20520;-84
2022/12/14 07:00:40;;;;;;;8.57;7.07;;;3.00;65.90;2.50;94797.00;;;;5081653;28;20490;-84
2022/12/14 07:03:09;;;;;;;9.60;7.73;;;3.00;66.10;2.50;94793.00;;;;5074734;28;20500;-84
2022/12/14 07:05:37;;;;;;;9.77;7.63;;;3.00;66.10;2.50;94796.00;;;;5076130;28;20443;-84
2022/12/14 07:08:05;;;;;;;9.00;7.33;;;3.00;66.20;2.60;94794.00;;;;5079282;28;21064;-84
2022/12/14 07:10:34;;;;;;;10.90;7.83;;;3.10;66.40;2.60;94798.00;;;;5078518;28;20486;-83
2022/12/14 07:13:02;;;;;;;10.43;7.37;;;3.10;66.40;2.60;94798.00;;;;5077173;28;20481;-83
2022/12/14 07:15:29;;;;;;;8.77;7.17;;;3.10;66.30;2.60;94782.00;;;;5077348;28;20991;-83
2022/12/14 07:17:56;;;;;;;9.17;7.57;;;3.10;66.00;2.60;94780.00;;;;5076356;28;20775;-88
2022/12/14 07:20:23;;;;;;;9.03;7.60;;;3.10;66.20;2.70;94787.00;;;;5073415;28;20485;-88
2022/12/14 07:22:50;;;;;;;10.07;7.23;;;3.10;66.10;2.80;94795.00;;;;5075506;28;20501;-88
2022/12/14 07:25:19;;;;;;;10.90;7.60;;;3.20;66.10;2.80;94784.00;;;;5078719;28;20434;-88
2022/12/14 07:27:46;;;;;;;9.77;7.70;;;3.20;66.10;2.90;94790.00;;;;5075421;28;20520;-87
2022/12/14 07:30:14;;;;;;;10.13;7.67;;;3.20;65.90;2.90;94784.00;;;;5075737;28;20532;-87
2022/12/14 07:32:41;;;;;;;10.23;7.30;;;3.20;65.90;2.90;94794.00;;;;5074968;28;20492;-88
2022/12/14 07:35:09;;;;;;;10.53;8.37;;;3.30;66.40;2.90;94779.00;;;;5076949;28;20442;-87
2022/12/14 07:37:37;;;;;;;9.73;7.23;;;3.30;65.40;2.90;94780.00;;;;5080543;28;20563;-87
2022/12/14 07:40:05;;;;;;;10.43;7.30;;;3.30;65.30;2.80;94777.00;;;;5078497;28;20461;-86
2022/12/14 07:42:34;;;;;;;10.20;7.07;;;3.20;65.20;2.80;94781.00;;;;5081007;28;20918;-86
2022/12/14 07:45:01;;;;;;;9.93;8.50;;;3.20;65.30;2.80;94782.00;;;;5090351;28;20944;-87
2022/12/14 07:47:31;;;;;;;9.80;7.43;;;3.20;65.50;2.80;94783.00;;;;5073946;28;20539;-86
2022/12/14 07:49:58;;;;;;;9.77;7.67;;;3.20;65.40;2.80;94789.00;;;;5074522;28;20849;-86
2022/12/14 07:52:26;;;;;;;9.50;7.90;;;3.20;65.40;2.80;94785.00;;;;5074453;28;20881;-87
2022/12/14 07:54:53;;;;;;;11.83;8.00;;;3.20;65.30;2.80;94779.00;;;;5074239;28;20497;-87
2022/12/14 07:57:20;;;;;;;12.93;8.47;;;3.20;65.30;2.80;94778.00;;;;5075498;28;20545;-86
2022/12/14 07:59:49;;;;;;;10.07;8.00;;;3.20;65.30;2.80;94777.00;;;;5073952;28;20511;-86
2022/12/14 08:02:16;;;;;;;8.77;7.37;;;3.20;65.50;2.90;94771.00;;;;5074339;28;20937;-86
2022/12/14 08:04:44;;;;;;;10.57;8.40;;;3.20;65.50;2.90;94767.00;;;;5073448;28;20847;-86
2022/12/14 08:07:11;;;;;;;11.10;8.03;;;3.20;65.70;3.00;94770.00;;;;5074407;28;20571;-87
2022/12/14 08:09:38;;;;;;;9.70;7.13;;;3.30;66.60;3.00;94767.00;;;;5074315;28;20434;-86
2022/12/14 08:12:05;;;;;;;11.80;8.33;;;3.30;65.80;3.00;94766.00;;;;5074812;28;20433;-85
2022/12/14 08:14:33;;;;;;;10.30;7.83;;;3.30;65.70;3.00;94768.00;;;;5073793;28;20986;-86
2022/12/14 08:17:02;;;;;;;11.10;8.47;;;3.30;65.80;3.10;94758.00;;;;5082197;28;20450;-85
2022/12/14 08:19:29;;;;;;;9.83;8.10;;;3.40;65.80;3.10;94761.00;;;;5074222;28;21010;-86
2022/12/14 08:21:56;;;;;;;9.47;7.03;;;3.40;65.80;3.10;94756.00;;;;5079464;28;20500;-86
2022/12/14 08:24:23;;;;;;;11.40;8.47;;;3.40;65.80;3.20;94753.00;;;;5077267;28;20577;-86
2022/12/14 08:26:50;;;;;;;11.23;8.63;;;3.40;65.80;3.20;94747.00;;;;5086277;28;20851;-86
2022/12/14 08:29:18;;;;;;;12.33;7.50;;;3.40;65.80;3.20;94743.00;;;;5082926;28;20500;-87
2022/12/14 08:31:46;;;;;;;12.80;8.47;;;3.50;66.10;3.20;94734.00;;;;5078984;28;20442;-86
2022/12/14 08:34:20;;;;;;;10.03;8.03;;;3.50;65.80;3.30;94734.00;;;;5081443;28;20438;-85
2022/12/14 08:36:48;;;;;;;10.47;8.00;;;3.50;65.80;3.30;94732.00;;;;5082325;28;20442;-87
2022/12/14 08:39:15;;;;;;;9.43;7.80;;;3.60;65.80;3.30;94723.00;;;;5085337;28;20976;-88
2022/12/14 08:41:43;;;;;;;11.10;8.27;;;3.60;65.80;3.30;94726.00;;;;5086960;28;20437;-87
2022/12/14 08:44:11;;;;;;;11.83;8.63;;;3.60;65.80;3.40;94726.00;;;;5086012;28;20492;-88
2022/12/14 08:46:39;;;;;;;10.07;7.93;;;3.60;65.80;3.40;94733.00;;;;5086826;28;20437;-88
2022/12/14 08:49:06;;;;;;;12.17;8.47;;;3.70;65.70;3.40;94718.00;;;;5094551;28;20850;-88
2022/12/14 08:51:37;;;;;;;11.60;8.07;;;3.70;65.80;3.40;94735.00;;;;5066723;28;20445;-87
2022/12/14 08:54:05;;;;;;;11.70;7.60;;;3.70;65.90;3.40;94726.00;;;;5076395;28;20515;-87
2022/12/14 08:56:32;;;;;;;10.80;8.20;;;3.70;65.90;3.50;94734.00;;;;5081336;28;20554;-88
2022/12/14 08:58:59;;;;;;;10.63;7.70;;;3.70;66.10;3.50;94736.00;;;;5081481;28;20523;-87
2022/12/14 09:01:29;;;;;;;11.30;8.43;;;3.80;66.30;3.60;94741.00;;;;5072657;28;20419;-87
2022/12/14 09:04:02;;;;;;;10.60;8.50;;;3.80;66.30;3.60;94747.00;;;;5072468;28;20527;-87
2022/12/14 09:06:30;;;;;;;10.27;7.83;;;3.80;66.20;3.60;94729.00;;;;5073041;28;20434;-86
2022/12/14 09:08:58;;;;;;;11.10;7.80;;;3.90;66.30;3.60;94719.00;;;;5072727;28;21046;-87
2022/12/14 09:11:26;;;;;;;9.83;8.03;;;3.80;66.20;3.60;94721.00;;;;5072825;28;20438;-86
2022/12/14 09:13:54;;;;;;;10.87;8.07;;;3.90;66.30;3.70;94726.00;;;;5073339;28;20517;-87
2022/12/14 09:16:26;;;;;;;11.17;8.33;;;3.90;66.50;3.70;94724.00;;;;5071715;28;20481;-88
2022/12/14 09:18:54;;;;;;;10.70;8.07;;;3.90;66.60;3.70;94722.00;;;;5071871;28;20477;-87
2022/12/14 09:21:22;;;;;;;11.00;7.60;;;3.90;66.70;3.80;94716.00;;;;5071823;28;20507;-86
2022/12/14 09:23:50;;;;;;;10.97;7.70;;;4.00;66.90;3.80;94721.00;;;;5073291;28;20825;-86
2022/12/14 09:26:22;;;;;;;10.13;7.23;;;4.00;67.00;3.80;94727.00;;;;5077189;28;21268;-87
2022/12/14 09:28:52;;;;;;;9.80;8.23;;;4.00;66.80;3.90;94717.00;;;;5073552;28;20566;-87
2022/12/14 09:31:23;;;;;;;11.63;8.87;;;4.10;66.90;3.90;94712.00;;;;5076348;28;20446;-87
2022/12/14 09:33:51;;;;;;;11.77;8.17;;;4.10;66.80;3.90;94704.00;;;;5077475;28;20859;-87
2022/12/14 09:36:21;;;;;;;10.83;7.80;;;4.10;66.90;3.90;94674.00;;;;5053521;28;20439;-88
2022/12/14 09:38:50;;;;;;;10.93;8.07;;;4.10;67.10;3.90;94662.00;;;;5052247;28;20961;-88
2022/12/14 09:41:37;;;;;;;10.50;7.90;;;4.10;67.10;4.00;94664.00;;;;5052177;28;20537;-88
2022/12/14 09:44:19;;;;;;;10.60;7.83;;;4.20;67.30;4.00;94635.00;;;;5052121;28;20486;-88
2022/12/14 09:47:00;;;;;;;11.50;8.97;;;4.20;67.50;4.00;94654.00;;;;5051967;28;20510;-88
2022/12/14 09:49:32;;;;;;;10.57;8.00;;;4.20;67.40;4.00;94648.00;;;;5055882;28;20502;-87
2022/12/14 09:52:03;;;;;;;12.17;8.40;;;4.30;67.30;4.00;94652.00;;;;5095260;28;20506;-88
2022/12/14 09:54:34;;;;;;;10.03;8.33;;;4.30;67.40;4.10;94635.00;;;;5093535;28;20929;-87
2022/12/14 09:57:12;;;;;;;10.80;8.37;;;4.30;67.60;4.10;94645.00;;;;5089253;28;20522;-87
2022/12/14 09:59:40;;;;;;;11.97;8.60;;;4.30;67.80;4.10;94653.00;;;;5091846;28;20466;-87
2022/12/14 10:02:37;;;;;;;9.87;8.23;;;4.30;67.80;4.10;94655.00;;;;5080600;28;20492;-87
2022/12/14 10:05:32;;;;;;;9.23;7.43;;;4.40;67.80;4.20;94634.00;;;;5090601;28;20468;-88
2022/12/14 10:08:08;;;;;;;10.97;7.67;;;4.40;67.80;4.20;94632.00;;;;5091602;28;21039;-87
2022/12/14 10:10:45;;;;;;;10.27;7.90;;;4.40;67.80;4.20;94620.00;;;;5070276;28;20817;-88
2022/12/14 10:13:32;;;;;;;10.10;8.33;;;4.40;67.80;4.20;94623.00;;;;5074693;28;20410;-87
2022/12/14 10:16:15;;;;;;;10.53;7.40;;;4.50;67.80;4.20;94616.00;;;;5060167;28;20478;-88
2022/12/14 10:19:07;;;;;;;10.17;7.87;;;4.50;67.80;4.30;94614.00;;;;5054560;28;20474;-87
2022/12/14 10:21:47;;;;;;;8.80;7.13;;;4.50;67.80;4.30;94616.00;;;;5054681;28;20450;-87
2022/12/14 10:24:23;;;;;;;10.27;8.17;;;4.50;67.80;4.30;94608.00;;;;5054296;28;20463;-87
2022/12/14 10:26:53;;;;;;;11.23;8.20;;;4.50;67.70;4.30;94600.00;;;;5054139;28;20439;-87
2022/12/14 10:29:36;;;;;;;12.57;9.00;;;4.50;67.70;4.30;94603.00;;;;5054878;28;20526;-87
2022/12/14 10:32:20;;;;;;;10.40;7.93;;;4.50;68.00;4.40;94592.00;;;;5059031;28;20457;-86
2022/12/14 10:34:48;;;;;;;11.30;8.40;;;4.60;68.10;4.40;94585.00;;;;5054969;28;20477;-87
2022/12/14 10:37:28;;;;;;;9.80;7.97;;;4.60;68.10;4.40;94582.00;;;;5058893;28;20459;-85
2022/12/14 10:40:13;;;;;;;9.20;7.77;;;4.60;68.00;4.40;94567.00;;;;5087190;28;20954;-87
2022/12/14 10:42:53;;;;;;;9.07;7.43;;;4.60;67.80;4.50;94564.00;;;;5081003;28;20203;-86
2022/12/14 10:45:37;;;;;;;13.97;8.20;;;4.60;67.80;4.50;94570.00;;;;5089766;28;20465;-86
2022/12/14 10:48:29;;;;;;;10.57;7.87;;;4.70;67.80;4.50;94559.00;;;;5077957;28;20459;-84
2022/12/14 10:51:03;;;;;;;8.40;7.33;;;4.70;67.90;4.50;94559.00;;;;5091894;28;20434;-85
2022/12/14 10:53:40;;;;;;;8.20;7.23;;;4.70;67.70;4.50;94562.00;;;;5090857;28;20448;-84
2022/12/14 10:56:15;;;;;;;9.53;7.97;;;4.70;67.70;4.50;94554.00;;;;5092079;28;21037;-85
2022/12/14 10:58:42;;;;;;;10.13;8.07;;;4.70;67.80;4.50;94556.00;;;;5076350;28;20465;-86
2022/12/14 11:01:15;;;;;;;9.73;7.57;;;4.70;67.70;4.50;94558.00;;;;5093771;28;20445;-86
2022/12/14 11:03:48;;;;;;;9.10;7.53;;;4.70;67.50;4.50;94554.00;;;;5085774;28;20468;-86
2022/12/14 11:06:20;;;;;;;10.93;7.70;;;4.70;67.60;4.50;94543.00;;;;5076623;28;20431;-84
2022/12/14 11:08:49;;;;;;;10.43;7.97;;;4.70;67.80;4.50;94541.00;;;;5086981;28;20983;-85
2022/12/14 11:11:21;;;;;;;9.97;7.97;;;4.70;67.90;4.50;94549.00;;;;5091536;28;20551;-84
2022/12/14 11:13:54;;;;;;;9.50;7.20;;;4.70;68.10;4.60;94553.00;;;;5083639;28;20195;-84
2022/12/14 11:16:34;;;;;;;10.87;8.17;;;4.80;68.30;4.60;94548.00;;;;5082842;28;20438;-85
2022/12/14 11:19:05;;;;;;;10.03;8.23;;;4.80;68.20;4.60;94551.00;;;;5082052;28;20556;-84
2022/12/14 11:21:37;;;;;;;9.60;7.33;;;4.80;68.00;4.60;94556.00;;;;5085792;28;20928;-83
2022/12/14 11:24:07;;;;;;;10.57;7.97;;;4.80;68.00;4.60;94556.00;;;;5053828;28;20475;-85
2022/12/14 11:26:39;;;;;;;10.83;8.00;;;4.80;68.00;4.60;94563.00;;;;5052755;28;20444;-85
2022/12/14 11:29:18;;;;;;;10.07;8.07;;;4.80;68.10;4.60;94571.00;;;;5058067;28;20427;-84
2022/12/14 11:31:48;;;;;;;9.33;7.70;;;4.80;68.20;4.60;94544.00;;;;5081922;28;20521;-84
2022/12/14 11:34:33;;;;;;;9.37;7.77;;;4.80;68.30;4.70;94546.00;;;;5093018;28;20437;-84
2022/12/14 11:37:14;;;;;;;10.80;8.00;;;4.90;68.70;4.70;94552.00;;;;5072321;28;20454;-84
2022/12/14 11:39:42;;;;;;;11.50;8.10;;;4.90;68.80;4.70;94561.00;;;;5091376;28;20470;-85
2022/12/14 11:42:18;;;;;;;11.07;8.17;;;4.90;68.80;4.70;94551.00;;;;5090643;28;20497;-84